sensor_id;sensor_type;location;lat;lon;timestamp;P1;durP1;ratioP1;P2;durP2;ratioP2
4724;SDS011;2376;53.544;10.226;2022-09-27T00:00:56;3.20;;;2.97;;
4724;SDS011;2376;53.544;10.226;2022-09-27T00:03:23;2.80;;;2.70;;
4724;SDS011;2376;53.544;10.226;2022-09-27T00:05:59;2.73;;;2.50;;
4724;SDS011;2376;53.544;10.226;2022-09-27T00:08:26;2.97;;;2.80;;
4724;SDS011;2376;53.544;10.226;2022-09-27T00:10:58;2.60;;;2.50;;
4724;SDS011;2376;53.544;10.226;2022-09-27T00:13:25;2.93;;;2.73;;
4724;SDS011;2376;53.544;10.226;2022-09-27T00:15:54;2.63;;;2.53;;
4724;SDS011;2376;53.544;10.226;2022-09-27T00:18:22;2.90;;;2.70;;
4724;SDS011;2376;53.544;10.226;2022-09-27T00:20:48;2.87;;;2.67;;
4724;SDS011;2376;53.544;10.226;2022-09-27T00:23:15;2.83;;;2.73;;
4724;SDS011;2376;53.544;10.226;2022-09-27T00:25:42;3.60;;;3.20;;
4724;SDS011;2376;53.544;10.226;2022-09-27T00:28:20;3.53;;;3.33;;
4724;SDS011;2376;53.544;10.226;2022-09-27T00:30:47;3.20;;;3.00;;
4724;SDS011;2376;53.544;10.226;2022-09-27T00:33:14;3.67;;;3.37;;
4724;SDS011;2376;53.544;10.226;2022-09-27T00:35:41;3.23;;;2.90;;
4724;SDS011;2376;53.544;10.226;2022-09-27T00:38:08;3.30;;;3.13;;
4724;SDS011;2376;53.544;10.226;2022-09-27T00:40:35;3.30;;;3.10;;
4724;SDS011;2376;53.544;10.226;2022-09-27T00:43:02;3.40;;;3.20;;
4724;SDS011;2376;53.544;10.226;2022-09-27T00:45:31;3.30;;;3.10;;
4724;SDS011;2376;53.544;10.226;2022-09-27T00:47:58;3.10;;;3.00;;
4724;SDS011;2376;53.544;10.226;2022-09-27T00:50:31;3.50;;;3.30;;
4724;SDS011;2376;53.544;10.226;2022-09-27T00:53:03;3.70;;;3.40;;
4724;SDS011;2376;53.544;10.226;2022-09-27T00:55:35;3.67;;;3.40;;
4724;SDS011;2376;53.544;10.226;2022-09-27T00:58:05;3.70;;;3.50;;
4724;SDS011;2376;53.544;10.226;2022-09-27T01:00:34;3.23;;;3.10;;
4724;SDS011;2376;53.544;10.226;2022-09-27T01:03:03;3.67;;;3.47;;
4724;SDS011;2376;53.544;10.226;2022-09-27T01:05:35;3.37;;;3.17;;
4724;SDS011;2376;53.544;10.226;2022-09-27T01:08:02;3.90;;;3.60;;
4724;SDS011;2376;53.544;10.226;2022-09-27T01:10:31;2.60;;;2.50;;
4724;SDS011;2376;53.544;10.226;2022-09-27T01:13:06;3.60;;;3.30;;
4724;SDS011;2376;53.544;10.226;2022-09-27T01:15:42;2.70;;;2.60;;
4724;SDS011;2376;53.544;10.226;2022-09-27T01:18:18;3.33;;;3.13;;
4724;SDS011;2376;53.544;10.226;2022-09-27T01:23:47;3.90;;;3.60;;
4724;SDS011;2376;53.544;10.226;2022-09-27T01:26:37;3.60;;;3.40;;
4724;SDS011;2376;53.544;10.226;2022-09-27T01:29:21;3.57;;;3.37;;
4724;SDS011;2376;53.544;10.226;2022-09-27T01:31:59;3.60;;;3.40;;
4724;SDS011;2376;53.544;10.226;2022-09-27T01:34:33;3.43;;;3.13;;
4724;SDS011;2376;53.544;10.226;2022-09-27T01:37:07;4.03;;;3.53;;
4724;SDS011;2376;53.544;10.226;2022-09-27T01:39:43;3.87;;;3.57;;
4724;SDS011;2376;53.544;10.226;2022-09-27T01:42:18;4.33;;;4.10;;
4724;SDS011;2376;53.544;10.226;2022-09-27T01:44:49;3.43;;;3.23;;
4724;SDS011;2376;53.544;10.226;2022-09-27T01:47:21;3.33;;;3.23;;
4724;SDS011;2376;53.544;10.226;2022-09-27T01:49:51;3.30;;;3.20;;
4724;SDS011;2376;53.544;10.226;2022-09-27T01:55:43;3.93;;;3.13;;
4724;SDS011;2376;53.544;10.226;2022-09-27T01:58:13;3.50;;;3.30;;
4724;SDS011;2376;53.544;10.226;2022-09-27T02:00:44;3.17;;;2.90;;
4724;SDS011;2376;53.544;10.226;2022-09-27T02:03:17;3.77;;;3.47;;
4724;SDS011;2376;53.544;10.226;2022-09-27T02:05:46;3.20;;;2.90;;
4724;SDS011;2376;53.544;10.226;2022-09-27T02:08:20;3.70;;;3.50;;
4724;SDS011;2376;53.544;10.226;2022-09-27T02:10:51;3.93;;;3.23;;
4724;SDS011;2376;53.544;10.226;2022-09-27T02:13:22;3.63;;;3.43;;
4724;SDS011;2376;53.544;10.226;2022-09-27T02:15:54;3.80;;;3.60;;
4724;SDS011;2376;53.544;10.226;2022-09-27T02:18:28;3.73;;;3.53;;
4724;SDS011;2376;53.544;10.226;2022-09-27T02:21:01;4.27;;;3.97;;
4724;SDS011;2376;53.544;10.226;2022-09-27T02:23:34;3.60;;;3.40;;
4724;SDS011;2376;53.544;10.226;2022-09-27T02:26:05;3.33;;;3.10;;
4724;SDS011;2376;53.544;10.226;2022-09-27T02:28:39;3.20;;;3.00;;
4724;SDS011;2376;53.544;10.226;2022-09-27T02:31:10;3.93;;;3.50;;
4724;SDS011;2376;53.544;10.226;2022-09-27T02:33:39;3.50;;;3.30;;
4724;SDS011;2376;53.544;10.226;2022-09-27T02:36:09;3.53;;;3.33;;
4724;SDS011;2376;53.544;10.226;2022-09-27T02:38:36;3.60;;;3.30;;
4724;SDS011;2376;53.544;10.226;2022-09-27T02:41:10;4.30;;;3.90;;
4724;SDS011;2376;53.544;10.226;2022-09-27T02:43:39;3.80;;;3.60;;
4724;SDS011;2376;53.544;10.226;2022-09-27T02:46:13;5.30;;;3.50;;
4724;SDS011;2376;53.544;10.226;2022-09-27T02:48:52;3.83;;;3.63;;
4724;SDS011;2376;53.544;10.226;2022-09-27T02:51:31;4.23;;;3.93;;
4724;SDS011;2376;53.544;10.226;2022-09-27T02:54:09;3.97;;;3.77;;
4724;SDS011;2376;53.544;10.226;2022-09-27T02:56:46;4.30;;;4.00;;
4724;SDS011;2376;53.544;10.226;2022-09-27T02:59:20;3.97;;;3.87;;
4724;SDS011;2376;53.544;10.226;2022-09-27T03:01:56;4.97;;;4.67;;
4724;SDS011;2376;53.544;10.226;2022-09-27T03:04:33;4.20;;;3.90;;
4724;SDS011;2376;53.544;10.226;2022-09-27T03:07:02;4.33;;;4.10;;
4724;SDS011;2376;53.544;10.226;2022-09-27T03:09:39;4.17;;;3.80;;
4724;SDS011;2376;53.544;10.226;2022-09-27T03:12:07;3.90;;;3.70;;
4724;SDS011;2376;53.544;10.226;2022-09-27T03:14:33;4.73;;;4.40;;
4724;SDS011;2376;53.544;10.226;2022-09-27T03:17:00;3.87;;;3.70;;
4724;SDS011;2376;53.544;10.226;2022-09-27T03:19:27;4.80;;;4.40;;
4724;SDS011;2376;53.544;10.226;2022-09-27T03:21:55;4.03;;;3.77;;
4724;SDS011;2376;53.544;10.226;2022-09-27T03:24:21;4.30;;;4.10;;
4724;SDS011;2376;53.544;10.226;2022-09-27T03:26:48;4.80;;;4.50;;
4724;SDS011;2376;53.544;10.226;2022-09-27T03:29:15;4.60;;;4.30;;
4724;SDS011;2376;53.544;10.226;2022-09-27T03:31:41;4.10;;;3.87;;
4724;SDS011;2376;53.544;10.226;2022-09-27T03:34:08;5.07;;;4.77;;
4724;SDS011;2376;53.544;10.226;2022-09-27T03:36:35;4.40;;;4.00;;
4724;SDS011;2376;53.544;10.226;2022-09-27T03:39:03;4.00;;;3.80;;
4724;SDS011;2376;53.544;10.226;2022-09-27T03:41:30;4.63;;;4.37;;
4724;SDS011;2376;53.544;10.226;2022-09-27T03:43:57;5.03;;;4.73;;
4724;SDS011;2376;53.544;10.226;2022-09-27T03:46:24;4.50;;;4.30;;
4724;SDS011;2376;53.544;10.226;2022-09-27T03:48:51;4.67;;;4.47;;
4724;SDS011;2376;53.544;10.226;2022-09-27T03:51:17;4.70;;;4.50;;
4724;SDS011;2376;53.544;10.226;2022-09-27T03:53:44;5.47;;;5.17;;
4724;SDS011;2376;53.544;10.226;2022-09-27T03:56:12;5.20;;;4.80;;
4724;SDS011;2376;53.544;10.226;2022-09-27T03:58:39;5.30;;;5.00;;
4724;SDS011;2376;53.544;10.226;2022-09-27T04:01:06;6.27;;;5.87;;
4724;SDS011;2376;53.544;10.226;2022-09-27T04:03:32;5.93;;;5.50;;
4724;SDS011;2376;53.544;10.226;2022-09-27T04:06:00;5.63;;;5.33;;
4724;SDS011;2376;53.544;10.226;2022-09-27T04:08:26;5.60;;;5.30;;
4724;SDS011;2376;53.544;10.226;2022-09-27T04:10:54;5.77;;;5.47;;
4724;SDS011;2376;53.544;10.226;2022-09-27T04:13:22;6.10;;;5.73;;
4724;SDS011;2376;53.544;10.226;2022-09-27T04:15:49;6.20;;;5.80;;
4724;SDS011;2376;53.544;10.226;2022-09-27T04:18:15;7.10;;;5.67;;
4724;SDS011;2376;53.544;10.226;2022-09-27T04:20:42;6.00;;;5.60;;
4724;SDS011;2376;53.544;10.226;2022-09-27T04:23:09;8.50;;;5.20;;
4724;SDS011;2376;53.544;10.226;2022-09-27T04:25:35;5.20;;;5.00;;
4724;SDS011;2376;53.544;10.226;2022-09-27T04:28:03;6.20;;;5.80;;
4724;SDS011;2376;53.544;10.226;2022-09-27T04:30:31;6.20;;;5.70;;
4724;SDS011;2376;53.544;10.226;2022-09-27T04:32:58;4.80;;;4.40;;
4724;SDS011;2376;53.544;10.226;2022-09-27T04:35:25;5.50;;;5.20;;
4724;SDS011;2376;53.544;10.226;2022-09-27T04:38:09;5.20;;;4.90;;
4724;SDS011;2376;53.544;10.226;2022-09-27T04:40:36;6.57;;;5.80;;
4724;SDS011;2376;53.544;10.226;2022-09-27T04:43:02;6.10;;;5.70;;
4724;SDS011;2376;53.544;10.226;2022-09-27T04:45:29;5.30;;;5.00;;
4724;SDS011;2376;53.544;10.226;2022-09-27T04:47:58;5.53;;;5.13;;
4724;SDS011;2376;53.544;10.226;2022-09-27T04:50:24;5.33;;;4.93;;
4724;SDS011;2376;53.544;10.226;2022-09-27T04:52:51;6.40;;;6.00;;
4724;SDS011;2376;53.544;10.226;2022-09-27T04:55:19;6.03;;;5.63;;
4724;SDS011;2376;53.544;10.226;2022-09-27T04:57:46;5.40;;;5.10;;
4724;SDS011;2376;53.544;10.226;2022-09-27T05:00:13;7.10;;;6.50;;
4724;SDS011;2376;53.544;10.226;2022-09-27T05:02:42;6.47;;;6.07;;
4724;SDS011;2376;53.544;10.226;2022-09-27T05:05:09;6.20;;;5.70;;
4724;SDS011;2376;53.544;10.226;2022-09-27T05:07:36;6.03;;;5.63;;
4724;SDS011;2376;53.544;10.226;2022-09-27T05:10:03;5.53;;;5.23;;
4724;SDS011;2376;53.544;10.226;2022-09-27T05:12:30;5.83;;;5.30;;
4724;SDS011;2376;53.544;10.226;2022-09-27T05:14:57;5.97;;;5.63;;
4724;SDS011;2376;53.544;10.226;2022-09-27T05:17:24;5.97;;;5.60;;
4724;SDS011;2376;53.544;10.226;2022-09-27T05:19:52;6.27;;;5.83;;
4724;SDS011;2376;53.544;10.226;2022-09-27T05:22:19;6.80;;;6.37;;
4724;SDS011;2376;53.544;10.226;2022-09-27T05:24:45;5.93;;;5.53;;
4724;SDS011;2376;53.544;10.226;2022-09-27T05:27:13;6.10;;;5.70;;
4724;SDS011;2376;53.544;10.226;2022-09-27T05:29:42;6.80;;;6.30;;
4724;SDS011;2376;53.544;10.226;2022-09-27T05:32:09;5.90;;;5.40;;
4724;SDS011;2376;53.544;10.226;2022-09-27T05:34:36;6.87;;;6.30;;
4724;SDS011;2376;53.544;10.226;2022-09-27T05:37:04;5.97;;;5.57;;
4724;SDS011;2376;53.544;10.226;2022-09-27T05:39:31;5.83;;;5.43;;
4724;SDS011;2376;53.544;10.226;2022-09-27T05:41:57;5.97;;;5.63;;
4724;SDS011;2376;53.544;10.226;2022-09-27T05:44:24;5.23;;;4.93;;
4724;SDS011;2376;53.544;10.226;2022-09-27T05:46:51;6.00;;;5.50;;
4724;SDS011;2376;53.544;10.226;2022-09-27T05:49:17;6.23;;;5.83;;
4724;SDS011;2376;53.544;10.226;2022-09-27T05:51:44;6.40;;;6.00;;
4724;SDS011;2376;53.544;10.226;2022-09-27T05:54:12;7.20;;;6.70;;
4724;SDS011;2376;53.544;10.226;2022-09-27T05:56:39;6.63;;;6.23;;
4724;SDS011;2376;53.544;10.226;2022-09-27T05:59:06;9.43;;;6.33;;
4724;SDS011;2376;53.544;10.226;2022-09-27T06:01:32;6.40;;;5.90;;
4724;SDS011;2376;53.544;10.226;2022-09-27T06:03:59;7.10;;;6.60;;
4724;SDS011;2376;53.544;10.226;2022-09-27T06:06:27;6.83;;;6.33;;
4724;SDS011;2376;53.544;10.226;2022-09-27T06:08:54;6.73;;;6.23;;
4724;SDS011;2376;53.544;10.226;2022-09-27T06:11:22;8.30;;;7.43;;
4724;SDS011;2376;53.544;10.226;2022-09-27T06:13:49;7.60;;;6.90;;
4724;SDS011;2376;53.544;10.226;2022-09-27T06:16:16;7.37;;;6.77;;
4724;SDS011;2376;53.544;10.226;2022-09-27T06:18:42;7.10;;;6.60;;
4724;SDS011;2376;53.544;10.226;2022-09-27T06:21:09;7.10;;;6.50;;
4724;SDS011;2376;53.544;10.226;2022-09-27T06:23:37;7.27;;;6.77;;
4724;SDS011;2376;53.544;10.226;2022-09-27T06:26:04;8.20;;;7.50;;
4724;SDS011;2376;53.544;10.226;2022-09-27T06:28:33;7.47;;;6.80;;
4724;SDS011;2376;53.544;10.226;2022-09-27T06:31:00;9.10;;;8.20;;
4724;SDS011;2376;53.544;10.226;2022-09-27T06:33:26;8.23;;;7.50;;
4724;SDS011;2376;53.544;10.226;2022-09-27T06:35:53;8.97;;;8.07;;
4724;SDS011;2376;53.544;10.226;2022-09-27T06:38:20;8.97;;;8.17;;
4724;SDS011;2376;53.544;10.226;2022-09-27T06:40:48;9.03;;;8.23;;
4724;SDS011;2376;53.544;10.226;2022-09-27T06:43:16;11.80;;;7.30;;
4724;SDS011;2376;53.544;10.226;2022-09-27T06:45:46;9.83;;;8.90;;
4724;SDS011;2376;53.544;10.226;2022-09-27T06:48:13;9.37;;;8.20;;
4724;SDS011;2376;53.544;10.226;2022-09-27T06:50:41;7.90;;;7.23;;
4724;SDS011;2376;53.544;10.226;2022-09-27T06:53:09;8.50;;;7.70;;
4724;SDS011;2376;53.544;10.226;2022-09-27T06:55:38;7.93;;;7.23;;
4724;SDS011;2376;53.544;10.226;2022-09-27T06:58:05;7.63;;;7.03;;
4724;SDS011;2376;53.544;10.226;2022-09-27T07:00:51;6.27;;;5.77;;
4724;SDS011;2376;53.544;10.226;2022-09-27T07:03:19;6.73;;;5.87;;
4724;SDS011;2376;53.544;10.226;2022-09-27T07:05:53;7.60;;;6.03;;
4724;SDS011;2376;53.544;10.226;2022-09-27T07:08:23;6.47;;;5.97;;
4724;SDS011;2376;53.544;10.226;2022-09-27T07:10:52;5.70;;;5.30;;
4724;SDS011;2376;53.544;10.226;2022-09-27T07:13:19;6.20;;;5.60;;
4724;SDS011;2376;53.544;10.226;2022-09-27T07:15:46;7.63;;;5.23;;
4724;SDS011;2376;53.544;10.226;2022-09-27T07:18:15;6.00;;;4.83;;
4724;SDS011;2376;53.544;10.226;2022-09-27T07:20:41;3.90;;;3.70;;
4724;SDS011;2376;53.544;10.226;2022-09-27T07:23:09;3.60;;;3.40;;
4724;SDS011;2376;53.544;10.226;2022-09-27T07:25:36;3.20;;;2.90;;
4724;SDS011;2376;53.544;10.226;2022-09-27T07:28:03;3.70;;;3.40;;
4724;SDS011;2376;53.544;10.226;2022-09-27T07:30:31;2.90;;;2.70;;
4724;SDS011;2376;53.544;10.226;2022-09-27T07:33:00;2.30;;;2.20;;
4724;SDS011;2376;53.544;10.226;2022-09-27T07:35:29;2.83;;;2.60;;
4724;SDS011;2376;53.544;10.226;2022-09-27T07:37:56;3.13;;;2.83;;
4724;SDS011;2376;53.544;10.226;2022-09-27T07:40:23;3.37;;;3.07;;
4724;SDS011;2376;53.544;10.226;2022-09-27T07:42:53;2.27;;;2.10;;
4724;SDS011;2376;53.544;10.226;2022-09-27T07:45:20;2.80;;;2.70;;
4724;SDS011;2376;53.544;10.226;2022-09-27T07:47:48;2.40;;;2.20;;
4724;SDS011;2376;53.544;10.226;2022-09-27T07:50:15;2.93;;;2.83;;
4724;SDS011;2376;53.544;10.226;2022-09-27T07:52:44;2.57;;;2.37;;
4724;SDS011;2376;53.544;10.226;2022-09-27T07:55:13;3.40;;;3.20;;
4724;SDS011;2376;53.544;10.226;2022-09-27T07:57:40;2.10;;;2.00;;
4724;SDS011;2376;53.544;10.226;2022-09-27T08:00:10;2.27;;;1.33;;
4724;SDS011;2376;53.544;10.226;2022-09-27T08:02:38;1.67;;;1.57;;
4724;SDS011;2376;53.544;10.226;2022-09-27T08:05:06;1.43;;;1.33;;
4724;SDS011;2376;53.544;10.226;2022-09-27T08:07:33;1.90;;;1.47;;
4724;SDS011;2376;53.544;10.226;2022-09-27T08:10:01;1.30;;;1.30;;
4724;SDS011;2376;53.544;10.226;2022-09-27T08:12:28;3.17;;;1.70;;
4724;SDS011;2376;53.544;10.226;2022-09-27T08:14:55;1.57;;;1.47;;
4724;SDS011;2376;53.544;10.226;2022-09-27T08:17:25;1.80;;;1.10;;
4724;SDS011;2376;53.544;10.226;2022-09-27T08:19:52;0.90;;;0.90;;
4724;SDS011;2376;53.544;10.226;2022-09-27T08:22:19;1.23;;;1.20;;
4724;SDS011;2376;53.544;10.226;2022-09-27T08:24:45;2.23;;;1.50;;
4724;SDS011;2376;53.544;10.226;2022-09-27T08:27:14;3.40;;;1.97;;
4724;SDS011;2376;53.544;10.226;2022-09-27T08:29:41;1.70;;;1.60;;
4724;SDS011;2376;53.544;10.226;2022-09-27T08:32:08;8.00;;;2.30;;
4724;SDS011;2376;53.544;10.226;2022-09-27T08:34:34;1.77;;;1.67;;
4724;SDS011;2376;53.544;10.226;2022-09-27T08:37:01;2.00;;;1.87;;
4724;SDS011;2376;53.544;10.226;2022-09-27T08:39:28;2.70;;;2.27;;
4724;SDS011;2376;53.544;10.226;2022-09-27T08:41:56;2.33;;;2.23;;
4724;SDS011;2376;53.544;10.226;2022-09-27T08:44:34;2.13;;;2.03;;
4724;SDS011;2376;53.544;10.226;2022-09-27T08:47:11;3.53;;;1.90;;
4724;SDS011;2376;53.544;10.226;2022-09-27T08:49:42;2.10;;;2.00;;
4724;SDS011;2376;53.544;10.226;2022-09-27T08:52:16;2.00;;;1.90;;
4724;SDS011;2376;53.544;10.226;2022-09-27T08:54:45;1.37;;;1.33;;
4724;SDS011;2376;53.544;10.226;2022-09-27T08:57:13;1.53;;;1.40;;
4724;SDS011;2376;53.544;10.226;2022-09-27T08:59:42;1.70;;;1.60;;
4724;SDS011;2376;53.544;10.226;2022-09-27T09:02:16;1.80;;;1.70;;
4724;SDS011;2376;53.544;10.226;2022-09-27T09:04:44;2.10;;;2.00;;
4724;SDS011;2376;53.544;10.226;2022-09-27T09:07:14;4.40;;;1.67;;
4724;SDS011;2376;53.544;10.226;2022-09-27T09:10:02;2.10;;;1.97;;
4724;SDS011;2376;53.544;10.226;2022-09-27T09:12:40;3.30;;;2.20;;
4724;SDS011;2376;53.544;10.226;2022-09-27T09:15:27;2.30;;;1.70;;
4724;SDS011;2376;53.544;10.226;2022-09-27T09:18:21;2.57;;;2.33;;
4724;SDS011;2376;53.544;10.226;2022-09-27T09:21:01;2.47;;;1.80;;
4724;SDS011;2376;53.544;10.226;2022-09-27T09:23:49;1.50;;;1.40;;
4724;SDS011;2376;53.544;10.226;2022-09-27T09:26:37;1.50;;;1.40;;
4724;SDS011;2376;53.544;10.226;2022-09-27T09:29:14;1.57;;;1.47;;
4724;SDS011;2376;53.544;10.226;2022-09-27T09:31:57;1.67;;;1.57;;
4724;SDS011;2376;53.544;10.226;2022-09-27T09:34:33;1.37;;;1.27;;
4724;SDS011;2376;53.544;10.226;2022-09-27T09:37:09;1.83;;;1.40;;
4724;SDS011;2376;53.544;10.226;2022-09-27T09:39:41;1.40;;;1.30;;
4724;SDS011;2376;53.544;10.226;2022-09-27T09:42:14;2.03;;;1.93;;
4724;SDS011;2376;53.544;10.226;2022-09-27T09:44:50;2.73;;;1.80;;
4724;SDS011;2376;53.544;10.226;2022-09-27T09:47:24;4.10;;;1.90;;
4724;SDS011;2376;53.544;10.226;2022-09-27T09:49:55;1.93;;;1.63;;
4724;SDS011;2376;53.544;10.226;2022-09-27T09:52:35;1.93;;;1.83;;
4724;SDS011;2376;53.544;10.226;2022-09-27T09:55:08;2.20;;;2.00;;
4724;SDS011;2376;53.544;10.226;2022-09-27T09:57:45;1.87;;;1.63;;
4724;SDS011;2376;53.544;10.226;2022-09-27T10:00:21;3.03;;;1.90;;
4724;SDS011;2376;53.544;10.226;2022-09-27T10:02:53;1.97;;;1.87;;
4724;SDS011;2376;53.544;10.226;2022-09-27T10:05:23;2.10;;;2.00;;
4724;SDS011;2376;53.544;10.226;2022-09-27T10:07:51;1.87;;;1.77;;
4724;SDS011;2376;53.544;10.226;2022-09-27T10:10:20;5.20;;;2.70;;
4724;SDS011;2376;53.544;10.226;2022-09-27T10:12:47;1.90;;;1.80;;
4724;SDS011;2376;53.544;10.226;2022-09-27T10:15:15;2.27;;;1.87;;
4724;SDS011;2376;53.544;10.226;2022-09-27T10:17:44;1.90;;;1.80;;
4724;SDS011;2376;53.544;10.226;2022-09-27T10:20:18;1.40;;;1.30;;
4724;SDS011;2376;53.544;10.226;2022-09-27T10:22:52;1.20;;;1.10;;
4724;SDS011;2376;53.544;10.226;2022-09-27T10:25:20;1.53;;;1.33;;
4724;SDS011;2376;53.544;10.226;2022-09-27T10:27:48;2.80;;;1.20;;
4724;SDS011;2376;53.544;10.226;2022-09-27T10:30:22;1.30;;;1.20;;
4724;SDS011;2376;53.544;10.226;2022-09-27T10:32:51;1.43;;;1.33;;
4724;SDS011;2376;53.544;10.226;2022-09-27T10:35:30;1.70;;;1.43;;
4724;SDS011;2376;53.544;10.226;2022-09-27T10:38:05;1.67;;;1.57;;
4724;SDS011;2376;53.544;10.226;2022-09-27T10:40:45;2.23;;;1.23;;
4724;SDS011;2376;53.544;10.226;2022-09-27T10:43:21;1.33;;;1.23;;
4724;SDS011;2376;53.544;10.226;2022-09-27T10:45:54;1.27;;;1.17;;
4724;SDS011;2376;53.544;10.226;2022-09-27T10:48:27;1.40;;;1.40;;
4724;SDS011;2376;53.544;10.226;2022-09-27T10:50:56;2.00;;;1.90;;
4724;SDS011;2376;53.544;10.226;2022-09-27T10:53:25;1.73;;;1.63;;
4724;SDS011;2376;53.544;10.226;2022-09-27T10:55:52;1.37;;;1.30;;
4724;SDS011;2376;53.544;10.226;2022-09-27T10:58:23;1.20;;;1.20;;
4724;SDS011;2376;53.544;10.226;2022-09-27T11:00:55;2.13;;;1.20;;
4724;SDS011;2376;53.544;10.226;2022-09-27T11:03:25;1.47;;;1.37;;
4724;SDS011;2376;53.544;10.226;2022-09-27T11:05:53;1.40;;;1.30;;
4724;SDS011;2376;53.544;10.226;2022-09-27T11:08:23;1.63;;;1.10;;
4724;SDS011;2376;53.544;10.226;2022-09-27T11:11:02;1.57;;;1.27;;
4724;SDS011;2376;53.544;10.226;2022-09-27T11:13:40;1.53;;;1.17;;
4724;SDS011;2376;53.544;10.226;2022-09-27T11:16:25;1.50;;;1.40;;
4724;SDS011;2376;53.544;10.226;2022-09-27T11:19:06;1.40;;;1.40;;
4724;SDS011;2376;53.544;10.226;2022-09-27T11:21:46;2.50;;;1.67;;
4724;SDS011;2376;53.544;10.226;2022-09-27T11:24:22;4.23;;;1.60;;
4724;SDS011;2376;53.544;10.226;2022-09-27T11:27:02;1.87;;;1.77;;
4724;SDS011;2376;53.544;10.226;2022-09-27T11:29:35;1.60;;;1.50;;
4724;SDS011;2376;53.544;10.226;2022-09-27T11:32:17;2.07;;;1.97;;
4724;SDS011;2376;53.544;10.226;2022-09-27T11:34:57;1.90;;;1.80;;
4724;SDS011;2376;53.544;10.226;2022-09-27T11:37:37;1.50;;;1.40;;
4724;SDS011;2376;53.544;10.226;2022-09-27T11:40:22;1.70;;;1.60;;
4724;SDS011;2376;53.544;10.226;2022-09-27T11:42:57;3.77;;;1.50;;
4724;SDS011;2376;53.544;10.226;2022-09-27T11:45:38;1.80;;;1.70;;
4724;SDS011;2376;53.544;10.226;2022-09-27T11:48:22;1.60;;;1.60;;
4724;SDS011;2376;53.544;10.226;2022-09-27T11:51:03;1.70;;;1.60;;
4724;SDS011;2376;53.544;10.226;2022-09-27T11:53:42;3.67;;;1.47;;
4724;SDS011;2376;53.544;10.226;2022-09-27T11:56:25;1.30;;;1.20;;
4724;SDS011;2376;53.544;10.226;2022-09-27T11:59:06;1.90;;;1.27;;
4724;SDS011;2376;53.544;10.226;2022-09-27T12:01:58;1.60;;;1.50;;
4724;SDS011;2376;53.544;10.226;2022-09-27T12:04:39;1.20;;;1.10;;
4724;SDS011;2376;53.544;10.226;2022-09-27T12:07:17;6.43;;;1.43;;
4724;SDS011;2376;53.544;10.226;2022-09-27T12:09:56;1.20;;;1.10;;
4724;SDS011;2376;53.544;10.226;2022-09-27T12:12:29;1.40;;;1.30;;
4724;SDS011;2376;53.544;10.226;2022-09-27T12:14:59;1.10;;;1.00;;
4724;SDS011;2376;53.544;10.226;2022-09-27T12:17:29;0.90;;;0.90;;
4724;SDS011;2376;53.544;10.226;2022-09-27T12:20:02;1.00;;;1.00;;
4724;SDS011;2376;53.544;10.226;2022-09-27T12:22:33;1.37;;;1.00;;
4724;SDS011;2376;53.544;10.226;2022-09-27T12:25:02;0.90;;;0.90;;
4724;SDS011;2376;53.544;10.226;2022-09-27T12:27:33;0.90;;;0.90;;
4724;SDS011;2376;53.544;10.226;2022-09-27T12:30:03;1.40;;;1.30;;
4724;SDS011;2376;53.544;10.226;2022-09-27T12:32:31;4.40;;;1.63;;
4724;SDS011;2376;53.544;10.226;2022-09-27T12:35:03;1.10;;;1.10;;
4724;SDS011;2376;53.544;10.226;2022-09-27T12:37:35;1.37;;;1.10;;
4724;SDS011;2376;53.544;10.226;2022-09-27T12:40:06;1.50;;;1.10;;
4724;SDS011;2376;53.544;10.226;2022-09-27T12:42:43;1.33;;;1.17;;
4724;SDS011;2376;53.544;10.226;2022-09-27T12:45:15;1.27;;;1.00;;
4724;SDS011;2376;53.544;10.226;2022-09-27T12:47:50;1.73;;;1.63;;
4724;SDS011;2376;53.544;10.226;2022-09-27T12:50:27;1.83;;;1.73;;
4724;SDS011;2376;53.544;10.226;2022-09-27T12:53:01;1.67;;;1.40;;
4724;SDS011;2376;53.544;10.226;2022-09-27T12:55:36;1.70;;;1.63;;
4724;SDS011;2376;53.544;10.226;2022-09-27T12:58:30;1.93;;;1.83;;
4724;SDS011;2376;53.544;10.226;2022-09-27T13:01:24;2.00;;;1.90;;
4724;SDS011;2376;53.544;10.226;2022-09-27T13:04:09;1.73;;;1.63;;
4724;SDS011;2376;53.544;10.226;2022-09-27T13:07:01;1.70;;;1.60;;
4724;SDS011;2376;53.544;10.226;2022-09-27T13:09:45;1.93;;;1.57;;
4724;SDS011;2376;53.544;10.226;2022-09-27T13:12:26;2.43;;;1.70;;
4724;SDS011;2376;53.544;10.226;2022-09-27T13:14:57;1.60;;;1.50;;
4724;SDS011;2376;53.544;10.226;2022-09-27T13:20:39;1.23;;;1.13;;
4724;SDS011;2376;53.544;10.226;2022-09-27T13:26:41;1.47;;;1.30;;
4724;SDS011;2376;53.544;10.226;2022-09-27T13:29:20;1.10;;;1.00;;
4724;SDS011;2376;53.544;10.226;2022-09-27T13:32:01;1.20;;;1.10;;
4724;SDS011;2376;53.544;10.226;2022-09-27T13:34:44;1.30;;;1.20;;
4724;SDS011;2376;53.544;10.226;2022-09-27T13:40:20;2.17;;;1.10;;
4724;SDS011;2376;53.544;10.226;2022-09-27T13:46:02;1.50;;;1.40;;
4724;SDS011;2376;53.544;10.226;2022-09-27T13:48:38;1.83;;;1.30;;
4724;SDS011;2376;53.544;10.226;2022-09-27T13:51:17;1.10;;;1.10;;
4724;SDS011;2376;53.544;10.226;2022-09-27T13:53:58;1.20;;;1.10;;
4724;SDS011;2376;53.544;10.226;2022-09-27T13:59:15;1.50;;;1.40;;
4724;SDS011;2376;53.544;10.226;2022-09-27T14:01:45;1.53;;;1.20;;
4724;SDS011;2376;53.544;10.226;2022-09-27T14:04:18;1.30;;;1.20;;
4724;SDS011;2376;53.544;10.226;2022-09-27T14:06:49;1.60;;;1.50;;
4724;SDS011;2376;53.544;10.226;2022-09-27T14:09:23;2.90;;;1.80;;
4724;SDS011;2376;53.544;10.226;2022-09-27T14:11:52;1.40;;;1.30;;
4724;SDS011;2376;53.544;10.226;2022-09-27T14:14:24;1.47;;;1.37;;
4724;SDS011;2376;53.544;10.226;2022-09-27T14:16:53;1.40;;;1.37;;
4724;SDS011;2376;53.544;10.226;2022-09-27T14:19:22;1.30;;;1.20;;
4724;SDS011;2376;53.544;10.226;2022-09-27T14:21:50;1.73;;;1.30;;
4724;SDS011;2376;53.544;10.226;2022-09-27T14:24:24;1.20;;;1.20;;
4724;SDS011;2376;53.544;10.226;2022-09-27T14:27:05;1.17;;;1.10;;
4724;SDS011;2376;53.544;10.226;2022-09-27T14:29:42;1.20;;;1.03;;
4724;SDS011;2376;53.544;10.226;2022-09-27T14:32:11;1.93;;;1.20;;
4724;SDS011;2376;53.544;10.226;2022-09-27T14:34:41;1.00;;;1.00;;
4724;SDS011;2376;53.544;10.226;2022-09-27T14:39:57;3.37;;;1.20;;
4724;SDS011;2376;53.544;10.226;2022-09-27T14:42:27;1.77;;;1.30;;
4724;SDS011;2376;53.544;10.226;2022-09-27T14:44:58;0.97;;;0.97;;
4724;SDS011;2376;53.544;10.226;2022-09-27T14:47:28;1.13;;;0.90;;
4724;SDS011;2376;53.544;10.226;2022-09-27T14:49:56;1.47;;;0.80;;
4724;SDS011;2376;53.544;10.226;2022-09-27T14:52:25;1.50;;;1.17;;
4724;SDS011;2376;53.544;10.226;2022-09-27T14:54:59;1.53;;;1.17;;
4724;SDS011;2376;53.544;10.226;2022-09-27T14:57:27;2.23;;;1.13;;
4724;SDS011;2376;53.544;10.226;2022-09-27T14:59:57;1.57;;;1.20;;
4724;SDS011;2376;53.544;10.226;2022-09-27T15:02:27;1.20;;;1.10;;
4724;SDS011;2376;53.544;10.226;2022-09-27T15:04:54;1.07;;;0.90;;
4724;SDS011;2376;53.544;10.226;2022-09-27T15:07:22;1.57;;;1.20;;
4724;SDS011;2376;53.544;10.226;2022-09-27T15:09:49;1.67;;;1.53;;
4724;SDS011;2376;53.544;10.226;2022-09-27T15:12:18;1.03;;;1.03;;
4724;SDS011;2376;53.544;10.226;2022-09-27T15:14:50;2.07;;;1.97;;
4724;SDS011;2376;53.544;10.226;2022-09-27T15:17:19;1.73;;;1.63;;
4724;SDS011;2376;53.544;10.226;2022-09-27T15:19:56;3.07;;;1.77;;
4724;SDS011;2376;53.544;10.226;2022-09-27T15:22:33;2.13;;;2.03;;
4724;SDS011;2376;53.544;10.226;2022-09-27T15:25:03;4.07;;;2.43;;
4724;SDS011;2376;53.544;10.226;2022-09-27T15:27:32;2.33;;;2.20;;
4724;SDS011;2376;53.544;10.226;2022-09-27T15:29:59;2.93;;;2.03;;
4724;SDS011;2376;53.544;10.226;2022-09-27T15:32:26;2.43;;;2.23;;
4724;SDS011;2376;53.544;10.226;2022-09-27T15:34:54;2.80;;;2.60;;
4724;SDS011;2376;53.544;10.226;2022-09-27T15:37:23;2.70;;;2.23;;
4724;SDS011;2376;53.544;10.226;2022-09-27T15:39:53;2.87;;;2.67;;
4724;SDS011;2376;53.544;10.226;2022-09-27T15:42:20;2.37;;;2.27;;
4724;SDS011;2376;53.544;10.226;2022-09-27T15:44:48;2.70;;;2.60;;
4724;SDS011;2376;53.544;10.226;2022-09-27T15:50:31;2.33;;;2.23;;
4724;SDS011;2376;53.544;10.226;2022-09-27T15:52:59;2.87;;;2.70;;